createdAt,value
2018-03-08T00:01:12.020Z,91.50
2018-03-08T00:03:40.204Z,91.60
2018-03-08T00:06:08.376Z,92.00
2018-03-08T00:08:36.479Z,92.10
2018-03-08T00:11:04.585Z,92.10
2018-03-08T00:13:32.806Z,92.10
2018-03-08T00:16:01.659Z,92.30
2018-03-08T00:18:29.824Z,92.30
2018-03-08T00:20:57.921Z,92.30
2018-03-08T00:23:26.105Z,92.50
2018-03-08T00:25:54.256Z,92.70
2018-03-08T00:28:22.382Z,92.70
2018-03-08T00:30:50.502Z,92.60
2018-03-08T00:33:18.578Z,92.10
2018-03-08T00:35:47.507Z,92.00
2018-03-08T00:38:15.666Z,92.00
2018-03-08T00:40:43.791Z,91.80
2018-03-08T00:43:11.904Z,91.80
2018-03-08T00:45:40.061Z,91.90
2018-03-08T00:48:08.181Z,91.80
2018-03-08T00:50:36.350Z,91.80
2018-03-08T00:53:04.511Z,91.80
2018-03-08T00:55:32.679Z,91.40
2018-03-08T00:58:01.621Z,91.10
2018-03-08T01:00:29.713Z,91.10
2018-03-08T01:02:57.889Z,91.00
2018-03-08T01:05:26.131Z,90.70
2018-03-08T01:07:54.249Z,90.70
2018-03-08T01:10:22.403Z,90.60
2018-03-08T01:12:51.318Z,91.10
2018-03-08T01:15:19.517Z,90.60
2018-03-08T01:17:47.667Z,90.70
2018-03-08T01:20:15.768Z,90.80
2018-03-08T01:22:44.652Z,91.20
2018-03-08T01:25:12.802Z,90.90
2018-03-08T01:27:41.027Z,91.10
2018-03-08T01:30:09.151Z,91.20
2018-03-08T01:32:37.285Z,91.20
2018-03-08T01:35:05.400Z,91.00
2018-03-08T01:37:33.581Z,91.10
2018-03-08T01:40:01.706Z,91.20
2018-03-08T01:42:29.866Z,91.30
2018-03-08T01:44:58.727Z,91.40
2018-03-08T01:47:26.898Z,91.40
2018-03-08T01:49:55.037Z,91.40
2018-03-08T01:52:23.960Z,91.20
2018-03-08T01:54:52.122Z,91.10
2018-03-08T01:57:20.233Z,91.20
2018-03-08T01:59:48.381Z,91.30
2018-03-08T02:02:16.531Z,91.30
2018-03-08T02:04:44.788Z,91.50
2018-03-08T02:07:12.942Z,91.50
2018-03-08T02:09:41.104Z,91.60
2018-03-08T02:12:09.307Z,91.20
2018-03-08T02:14:37.423Z,91.30
2018-03-08T02:17:06.344Z,91.40
2018-03-08T02:19:34.450Z,91.40
2018-03-08T02:22:02.592Z,91.30
2018-03-08T02:24:31.507Z,91.10
2018-03-08T02:27:00.402Z,91.10
2018-03-08T02:29:29.274Z,91.00
2018-03-08T02:31:57.407Z,91.00
2018-03-08T02:34:25.565Z,90.80
2018-03-08T02:36:54.444Z,90.60
2018-03-08T02:39:22.568Z,90.60
2018-03-08T02:41:51.465Z,90.40
2018-03-08T02:44:20.375Z,90.20
2018-03-08T02:46:49.257Z,90.30
2018-03-08T02:49:17.385Z,90.20
2018-03-08T02:51:45.538Z,90.40
2018-03-08T02:54:14.408Z,90.40
2018-03-08T02:56:42.502Z,90.40
2018-03-08T02:59:10.591Z,90.50
2018-03-08T03:01:38.715Z,90.50
2018-03-08T03:04:06.815Z,90.50
2018-03-08T03:06:34.918Z,90.40
2018-03-08T03:09:03.030Z,90.20
2018-03-08T03:11:31.150Z,90.20
2018-03-08T03:13:59.266Z,90.20
2018-03-08T03:16:27.373Z,90.10
2018-03-08T03:18:55.573Z,90.00
2018-03-08T03:21:23.658Z,90.30
2018-03-08T03:23:51.777Z,90.50
2018-03-08T03:26:20.710Z,90.70
2018-03-08T03:28:48.875Z,90.70
2018-03-08T03:31:17.068Z,90.90
2018-03-08T03:33:45.237Z,91.20
2018-03-08T03:36:14.116Z,91.60
2018-03-08T03:38:42.304Z,91.60
2018-03-08T03:41:10.424Z,91.70
2018-03-08T03:43:39.287Z,91.70
2018-03-08T03:46:07.492Z,91.70
2018-03-08T03:48:36.380Z,91.70
2018-03-08T03:51:05.985Z,91.50
2018-03-08T03:53:34.196Z,91.50
2018-03-08T03:56:02.352Z,91.30
2018-03-08T03:58:30.468Z,91.30
2018-03-08T04:01:01.276Z,91.70
2018-03-08T04:03:29.497Z,91.70
2018-03-08T04:05:57.589Z,91.70
2018-03-08T04:08:26.508Z,92.00
2018-03-08T04:10:55.366Z,92.00
2018-03-08T04:13:23.491Z,92.00
2018-03-08T04:15:52.549Z,91.80
2018-03-08T04:18:20.725Z,91.80
2018-03-08T04:20:48.889Z,91.90
2018-03-08T04:23:17.016Z,92.00
2018-03-08T04:25:45.117Z,92.00
2018-03-08T04:28:13.268Z,92.20
2018-03-08T04:30:41.363Z,92.20
2018-03-08T04:33:09.479Z,92.20
2018-03-08T04:35:37.611Z,92.20
2018-03-08T04:38:05.806Z,92.00
2018-03-08T04:40:33.955Z,92.20
2018-03-08T04:43:02.871Z,92.40
2018-03-08T04:45:30.988Z,92.40
2018-03-08T04:47:59.177Z,92.20
2018-03-08T04:50:27.346Z,92.10
2018-03-08T04:52:55.530Z,92.20
2018-03-08T04:55:23.671Z,92.20
2018-03-08T04:57:51.770Z,92.40
2018-03-08T05:00:20.913Z,92.60
2018-03-08T05:02:48.996Z,92.50
2018-03-08T05:05:17.098Z,92.40
2018-03-08T05:07:45.233Z,92.50
2018-03-08T05:10:14.151Z,92.70
2018-03-08T05:12:42.266Z,92.70
2018-03-08T05:15:10.409Z,93.00
2018-03-08T05:17:39.340Z,93.30
2018-03-08T05:20:07.441Z,93.30
2018-03-08T05:22:35.586Z,92.80
2018-03-08T05:25:04.477Z,91.90
2018-03-08T05:27:33.359Z,91.80
2018-03-08T05:30:01.485Z,91.70
2018-03-08T05:32:30.495Z,91.50
2018-03-08T05:34:59.480Z,91.40
2018-03-08T05:37:28.359Z,91.60
2018-03-08T05:39:56.473Z,91.60
2018-03-08T05:42:25.374Z,91.40
2018-03-08T05:44:54.276Z,90.80
2018-03-08T05:47:23.124Z,90.90
2018-03-08T05:49:51.259Z,90.80
2018-03-08T05:52:20.135Z,90.90
2018-03-08T05:54:48.301Z,90.90
2018-03-08T05:57:16.403Z,90.80
2018-03-08T05:59:44.535Z,90.80
2018-03-08T06:02:13.478Z,90.30
2018-03-08T06:04:41.632Z,90.30
2018-03-08T06:07:09.744Z,89.30
2018-03-08T06:09:37.858Z,88.50
2018-03-08T06:12:06.112Z,88.00
2018-03-08T06:14:34.228Z,86.70
2018-03-08T06:17:02.388Z,85.70
2018-03-08T06:19:30.515Z,85.20
2018-03-08T06:21:58.624Z,84.00
2018-03-08T06:24:27.524Z,82.80
2018-03-08T06:26:56.447Z,82.90
2018-03-08T06:29:24.580Z,82.80
2018-03-08T06:31:52.717Z,83.80
2018-03-08T06:34:20.849Z,83.70
2018-03-08T06:36:48.998Z,83.80
2018-03-08T06:39:17.095Z,83.70
2018-03-08T06:41:45.259Z,83.80
2018-03-08T06:44:13.390Z,83.80
2018-03-08T06:46:41.557Z,84.00
2018-03-08T06:49:09.648Z,84.30
2018-03-08T06:51:37.828Z,85.20
2018-03-08T06:54:05.937Z,86.10
2018-03-08T06:56:34.116Z,86.30
2018-03-08T06:59:02.253Z,86.40
2018-03-08T07:01:30.388Z,86.70
2018-03-08T07:03:58.478Z,86.30
2018-03-08T07:06:26.625Z,86.10
2018-03-08T07:08:54.721Z,86.00
2018-03-08T07:11:22.886Z,85.80
2018-03-08T07:13:51.096Z,86.00
2018-03-08T07:16:19.195Z,85.50
2018-03-08T07:18:47.334Z,85.30
2018-03-08T07:21:16.514Z,80.10
2018-03-08T07:23:44.618Z,80.00
2018-03-08T07:26:13.549Z,74.20
2018-03-08T07:28:41.699Z,74.10
2018-03-08T07:31:10.532Z,69.40
2018-03-08T07:33:38.663Z,69.30
2018-03-08T07:36:06.775Z,69.60
2018-03-08T07:38:35.644Z,66.00
2018-03-08T07:41:03.771Z,66.10
2018-03-08T07:43:32.751Z,64.10
2018-03-08T07:46:00.837Z,63.90
2018-03-08T07:48:28.975Z,63.20
2018-03-08T07:50:57.080Z,63.60
2018-03-08T07:53:25.274Z,62.40
2018-03-08T07:55:53.396Z,61.10
2018-03-08T07:58:21.541Z,61.00
2018-03-08T08:00:51.012Z,62.20
2018-03-08T08:03:19.256Z,61.30
2018-03-08T08:05:59.263Z,63.60
2018-03-08T08:08:40.258Z,67.20
2018-03-08T08:11:09.385Z,66.20
2018-03-08T08:13:37.492Z,66.10
2018-03-08T08:16:05.636Z,65.20
2018-03-08T08:18:33.745Z,65.80
2018-03-08T08:21:01.839Z,66.70
2018-03-08T08:23:29.970Z,69.00
2018-03-08T08:25:58.051Z,69.70
2018-03-08T08:28:26.190Z,70.60
2018-03-08T08:30:54.298Z,68.50
2018-03-08T08:33:22.487Z,64.20
2018-03-08T08:35:50.619Z,59.90
2018-03-08T08:38:18.805Z,56.90
2018-03-08T08:40:48.216Z,55.00
2018-03-08T08:43:17.200Z,55.10
2018-03-08T08:45:45.290Z,55.00
2018-03-08T08:48:13.412Z,54.10
2018-03-08T08:50:41.521Z,56.40
2018-03-08T08:53:09.673Z,55.60
2018-03-08T08:55:37.792Z,55.30
2018-03-08T08:58:05.930Z,55.00
2018-03-08T09:00:34.098Z,54.70
2018-03-08T09:03:02.189Z,52.30
2018-03-08T09:05:31.155Z,52.30
2018-03-08T09:07:59.290Z,52.10
2018-03-08T09:10:28.190Z,50.30
2018-03-08T09:12:57.086Z,50.30
2018-03-08T09:15:25.226Z,49.70
2018-03-08T09:17:53.382Z,49.30
2018-03-08T09:20:22.230Z,49.90
2018-03-08T09:22:50.323Z,49.70
2018-03-08T09:25:18.440Z,50.50
2018-03-08T09:27:46.554Z,50.70
2018-03-08T09:30:14.679Z,49.50
2018-03-08T09:32:42.808Z,48.50
2018-03-08T09:35:10.939Z,48.00
2018-03-08T09:37:39.064Z,47.80
2018-03-08T09:40:07.272Z,47.60
2018-03-08T09:42:35.642Z,47.50
2018-03-08T09:45:03.791Z,47.90
2018-03-08T09:47:32.025Z,46.50
2018-03-08T09:50:00.911Z,45.00
2018-03-08T09:52:29.040Z,44.90
2018-03-08T09:54:57.133Z,45.50
2018-03-08T09:57:25.239Z,44.20
2018-03-08T09:59:53.376Z,44.30
2018-03-08T10:02:21.497Z,45.50
2018-03-08T10:04:49.814Z,45.90
2018-03-08T10:07:17.946Z,46.80
2018-03-08T10:09:46.158Z,49.20
2018-03-08T10:12:14.260Z,48.60
2018-03-08T10:14:42.388Z,46.00
2018-03-08T10:17:11.268Z,44.30
2018-03-08T10:19:39.372Z,44.20
2018-03-08T10:22:08.285Z,44.50
2018-03-08T10:24:37.160Z,44.60
2018-03-08T10:27:05.403Z,44.50
2018-03-08T10:29:33.491Z,44.10
2018-03-08T10:32:01.682Z,44.20
2018-03-08T10:34:29.802Z,43.70
2018-03-08T10:36:57.929Z,43.00
2018-03-08T10:41:54.130Z,42.60
2018-03-08T10:44:22.230Z,42.50
2018-03-08T10:46:50.395Z,42.00
2018-03-08T10:49:18.492Z,42.70
2018-03-08T10:51:46.616Z,43.40
2018-03-08T10:54:15.533Z,42.60
2018-03-08T10:56:43.678Z,42.50
2018-03-08T10:59:12.910Z,41.90
2018-03-08T11:01:43.922Z,41.30
2018-03-08T11:04:14.799Z,40.90
2018-03-08T11:06:42.887Z,40.70
2018-03-08T11:09:11.034Z,40.80
2018-03-08T11:11:39.140Z,40.10
2018-03-08T11:14:07.232Z,40.20
2018-03-08T11:16:35.429Z,39.90
2018-03-08T11:19:03.573Z,40.50
2018-03-08T11:21:31.709Z,41.30
2018-03-08T11:23:59.805Z,42.80
2018-03-08T11:26:28.774Z,43.50
2018-03-08T11:28:56.891Z,43.50
2018-03-08T11:31:25.774Z,42.00
2018-03-08T11:33:53.889Z,41.80
2018-03-08T11:36:22.776Z,41.50
2018-03-08T11:38:50.910Z,41.40
2018-03-08T11:41:19.036Z,40.50
2018-03-08T11:43:47.920Z,41.00
2018-03-08T11:46:16.038Z,41.00
2018-03-08T11:48:44.164Z,41.50
2018-03-08T11:51:12.284Z,41.80
2018-03-08T11:53:40.442Z,41.90
2018-03-08T11:56:08.546Z,38.30
2018-03-08T11:58:36.677Z,37.50
2018-03-08T12:01:04.888Z,37.80
2018-03-08T12:03:32.995Z,36.90
2018-03-08T12:06:01.102Z,36.50
2018-03-08T12:08:29.269Z,37.20
2018-03-08T12:10:57.378Z,38.50
2018-03-08T12:13:25.496Z,38.70
2018-03-08T12:15:53.626Z,37.90
2018-03-08T12:18:21.738Z,38.20
2018-03-08T12:20:49.908Z,38.10
2018-03-08T12:23:18.160Z,38.20
2018-03-08T12:25:46.244Z,37.70
2018-03-08T12:28:14.441Z,36.80
2018-03-08T12:30:42.519Z,36.60
2018-03-08T12:33:10.627Z,36.50
2018-03-08T12:35:38.745Z,36.40
2018-03-08T12:38:06.851Z,35.90
2018-03-08T12:40:34.959Z,35.00
2018-03-08T12:43:03.070Z,33.20
2018-03-08T12:45:31.165Z,31.60
2018-03-08T12:47:59.382Z,31.30
2018-03-08T12:50:27.515Z,30.50
2018-03-08T12:52:55.714Z,30.50
2018-03-08T12:55:23.856Z,29.70
2018-03-08T12:57:52.709Z,29.10
2018-03-08T13:00:20.946Z,29.10
2018-03-08T13:02:49.804Z,30.70
2018-03-08T13:05:17.929Z,30.60
2018-03-08T13:07:46.823Z,29.40
2018-03-08T13:10:15.679Z,28.60
2018-03-08T13:12:43.915Z,29.10
2018-03-08T13:15:12.863Z,29.10
2018-03-08T13:17:40.936Z,28.60
2018-03-08T13:20:09.112Z,27.90
2018-03-08T13:22:37.264Z,28.90
2018-03-08T13:25:05.438Z,29.70
2018-03-08T13:27:33.579Z,29.80
2018-03-08T13:30:01.679Z,30.50
2018-03-08T13:32:29.798Z,31.00
2018-03-08T13:34:58.020Z,30.90
2018-03-08T13:37:26.888Z,31.60
2018-03-08T13:39:55.056Z,31.50
2018-03-08T13:42:23.189Z,30.80
2018-03-08T13:44:51.317Z,30.60
2018-03-08T13:47:19.438Z,30.80
2018-03-08T13:49:47.690Z,30.60
2018-03-08T13:52:15.897Z,32.20
2018-03-08T13:54:44.034Z,32.10
2018-03-08T13:57:12.125Z,31.80
2018-03-08T13:59:40.348Z,33.10
2018-03-08T14:02:08.463Z,33.70
2018-03-08T14:04:37.374Z,34.40
2018-03-08T14:07:06.338Z,34.80
2018-03-08T14:09:34.447Z,34.70
2018-03-08T14:12:02.602Z,34.60
2018-03-08T14:14:30.773Z,34.20
2018-03-08T14:16:58.898Z,34.60
2018-03-08T14:19:27.099Z,35.10
2018-03-08T14:21:55.239Z,35.30
2018-03-08T14:24:23.394Z,34.60
2018-03-08T14:26:51.603Z,35.20
2018-03-08T14:29:19.793Z,35.00
2018-03-08T14:31:47.956Z,35.50
2018-03-08T14:34:16.804Z,36.50
2018-03-08T14:36:44.987Z,36.40
2018-03-08T14:39:13.176Z,36.50
2018-03-08T14:41:41.305Z,37.30
2018-03-08T14:44:10.233Z,37.70
2018-03-08T14:46:38.387Z,37.60
2018-03-08T14:49:06.477Z,38.40
2018-03-08T14:51:35.387Z,38.00
2018-03-08T14:54:04.243Z,38.40
2018-03-08T14:56:32.481Z,38.80
2018-03-08T14:59:01.365Z,39.80
2018-03-08T15:01:29.514Z,39.80
2018-03-08T15:03:57.606Z,39.90
2018-03-08T15:06:25.800Z,40.00
2018-03-08T15:08:54.008Z,39.70
2018-03-08T15:11:22.202Z,40.00
2018-03-08T15:13:50.307Z,40.20
2018-03-08T15:16:18.458Z,38.90
2018-03-08T15:18:48.091Z,37.50
2018-03-08T15:21:16.960Z,36.60
2018-03-08T15:23:45.064Z,36.00
2018-03-08T15:26:13.229Z,35.80
2018-03-08T15:28:41.400Z,35.50
2018-03-08T15:31:09.517Z,34.90
2018-03-08T15:33:37.635Z,34.90
2018-03-08T15:36:06.502Z,34.80
2018-03-08T15:38:34.657Z,34.90
2018-03-08T15:41:02.816Z,35.30
2018-03-08T15:43:31.690Z,36.30
2018-03-08T15:45:59.785Z,36.20
2018-03-08T15:48:27.909Z,36.60
2018-03-08T15:50:56.020Z,37.10
2018-03-08T15:53:24.146Z,37.70
2018-03-08T15:55:52.340Z,37.70
2018-03-08T15:58:21.330Z,38.10
2018-03-08T16:00:49.518Z,38.00
2018-03-08T16:03:17.622Z,38.20
2018-03-08T16:05:45.721Z,38.20
2018-03-08T16:11:32.765Z,38.90
2018-03-08T16:14:01.580Z,39.30
2018-03-08T16:16:29.636Z,39.20
2018-03-08T16:18:58.472Z,39.30
2018-03-08T16:21:32.372Z,39.30
2018-03-08T16:24:01.198Z,39.60
2018-03-08T16:26:29.252Z,39.60
2018-03-08T16:28:57.310Z,40.40
2018-03-08T16:31:25.368Z,40.20
2018-03-08T16:33:53.440Z,40.60
2018-03-08T16:36:21.503Z,40.90
2018-03-08T16:38:50.339Z,41.40
2018-03-08T16:41:18.388Z,41.30
2018-03-08T16:43:47.208Z,42.20
2018-03-08T16:46:15.273Z,42.10
2018-03-08T16:48:44.100Z,42.40
2018-03-08T16:51:12.160Z,42.40
2018-03-08T16:53:40.984Z,42.40
2018-03-08T16:56:09.055Z,42.40
2018-03-08T16:58:37.122Z,42.20
2018-03-08T17:01:05.938Z,42.10
2018-03-08T17:03:33.995Z,42.10
2018-03-08T17:06:02.064Z,42.10
2018-03-08T17:08:30.115Z,42.00
2018-03-08T17:10:58.179Z,42.50
2018-03-08T17:13:26.236Z,43.00
2018-03-08T17:15:54.356Z,43.50
2018-03-08T17:18:22.354Z,45.00
2018-03-08T17:20:50.422Z,45.80
2018-03-08T17:23:18.469Z,46.30
2018-03-08T17:25:46.518Z,46.70
2018-03-08T17:28:14.606Z,47.20
2018-03-08T17:30:42.645Z,47.60
2018-03-08T17:33:10.716Z,47.90
2018-03-08T17:35:39.544Z,48.80
2018-03-08T17:38:07.617Z,48.60
2018-03-08T17:40:35.684Z,49.30
2018-03-08T17:43:04.529Z,51.10
2018-03-08T17:45:32.585Z,50.40
2018-03-08T17:48:01.669Z,51.80
2018-03-08T17:50:30.271Z,51.70
2018-03-08T17:52:58.390Z,52.20
2018-03-08T17:55:27.258Z,52.40
2018-03-08T17:57:55.465Z,52.50
2018-03-08T18:00:24.704Z,52.60
2018-03-08T18:02:53.243Z,52.80
2018-03-08T18:05:22.069Z,53.30
2018-03-08T18:07:51.470Z,54.00
2018-03-08T18:10:19.931Z,55.30
2018-03-08T18:12:49.186Z,55.50
2018-03-08T18:15:18.593Z,55.40
2018-03-08T18:17:48.211Z,55.50
2018-03-08T18:20:18.609Z,55.70
2018-03-08T18:22:47.208Z,55.70
2018-03-08T18:25:16.557Z,55.70
2018-03-08T18:27:46.051Z,56.00
2018-03-08T18:30:14.465Z,56.40
2018-03-08T18:32:42.921Z,56.50
2018-03-08T18:35:12.583Z,56.90
2018-03-08T18:37:40.693Z,57.00
2018-03-08T18:40:09.674Z,57.40
2018-03-08T18:42:39.090Z,57.60
2018-03-08T18:45:07.286Z,57.50
2018-03-08T18:47:35.338Z,57.90
2018-03-08T18:50:03.388Z,58.30
2018-03-08T18:52:31.479Z,58.10
2018-03-08T18:54:59.534Z,58.10
2018-03-08T18:57:27.596Z,58.00
2018-03-08T18:59:56.411Z,58.10
2018-03-08T19:02:25.248Z,58.60
2018-03-08T19:04:53.295Z,58.60
2018-03-08T19:07:21.412Z,58.60
2018-03-08T19:09:49.573Z,58.30
2018-03-08T19:12:17.707Z,58.50
2018-03-08T19:14:45.814Z,58.80
2018-03-08T19:17:13.947Z,59.00
2018-03-08T19:19:42.064Z,59.30
2018-03-08T19:22:10.191Z,59.30
2018-03-08T19:24:39.091Z,58.80
2018-03-08T19:27:07.982Z,58.90
2018-03-08T19:29:36.105Z,58.90
2018-03-08T19:32:04.255Z,58.60
2018-03-08T19:34:33.114Z,57.90
2018-03-08T19:37:01.233Z,57.80
2018-03-08T19:39:29.378Z,57.40
2018-03-08T19:41:57.488Z,56.90
2018-03-08T19:44:25.671Z,56.70
2018-03-08T19:46:53.765Z,56.80
2018-03-08T19:49:21.912Z,56.50
2018-03-08T19:51:50.112Z,56.10
2018-03-08T19:54:18.594Z,55.60
2018-03-08T19:56:46.696Z,55.60
2018-03-08T19:59:14.837Z,55.50
2018-03-08T20:01:42.963Z,54.90
2018-03-08T20:04:11.210Z,54.90
2018-03-08T20:06:40.150Z,54.50
2018-03-08T20:09:08.252Z,54.30
2018-03-08T20:11:36.405Z,53.90
2018-03-08T20:14:04.545Z,54.00
2018-03-08T20:16:32.845Z,54.10
2018-03-08T20:19:01.856Z,54.00
2018-03-08T20:21:30.805Z,53.90
2018-03-08T20:23:58.897Z,53.70
2018-03-08T20:26:27.039Z,54.00
2018-03-08T20:28:55.909Z,54.80
2018-03-08T20:31:24.016Z,54.70
2018-03-08T20:33:52.917Z,54.70
2018-03-08T20:36:21.052Z,54.70
2018-03-08T20:38:49.219Z,54.30
2018-03-08T20:41:17.312Z,53.90
2018-03-08T20:43:45.471Z,53.70
2018-03-08T20:46:14.368Z,54.80
2018-03-08T20:48:43.248Z,53.80
2018-03-08T20:51:11.481Z,53.90
2018-03-08T20:53:39.678Z,53.90
2018-03-08T20:56:07.892Z,53.70
2018-03-08T20:58:36.008Z,54.00
2018-03-08T21:01:04.914Z,54.50
2018-03-08T21:03:33.808Z,54.40
2018-03-08T21:06:02.697Z,54.40
2018-03-08T21:08:30.817Z,54.40
2018-03-08T21:10:59.723Z,54.10
2018-03-08T21:13:27.860Z,54.10
2018-03-08T21:15:55.980Z,54.10
2018-03-08T21:18:24.094Z,54.00
2018-03-08T21:20:52.182Z,54.40
2018-03-08T21:23:20.315Z,54.80
2018-03-08T21:25:48.453Z,54.60
2018-03-08T21:28:16.567Z,54.30
2018-03-08T21:30:44.746Z,54.00
2018-03-08T21:33:12.853Z,53.80
2018-03-08T21:35:41.013Z,53.50
2018-03-08T21:38:09.209Z,53.10
2018-03-08T21:40:37.346Z,53.00
2018-03-08T21:43:06.217Z,53.40
2018-03-08T21:45:34.397Z,53.30
2018-03-08T21:48:02.510Z,53.70
2018-03-08T21:50:31.752Z,54.60
2018-03-08T21:52:59.877Z,54.50
2018-03-08T21:55:28.026Z,54.50
2018-03-08T21:57:56.169Z,54.50
2018-03-08T22:00:24.324Z,54.50
2018-03-08T22:02:52.437Z,54.50
2018-03-08T22:05:20.541Z,54.50
2018-03-08T22:07:48.687Z,55.60
2018-03-08T22:10:16.823Z,55.20
2018-03-08T22:12:45.728Z,54.70
2018-03-08T22:15:14.654Z,55.20
2018-03-08T22:17:42.828Z,55.10
2018-03-08T22:20:11.775Z,59.00
2018-03-08T22:22:39.937Z,58.90
2018-03-08T22:25:08.100Z,60.00
2018-03-08T22:27:37.396Z,69.40
2018-03-08T22:30:05.585Z,69.40
2018-03-08T22:32:34.468Z,74.50
2018-03-08T22:35:02.587Z,74.20
2018-03-08T22:37:31.506Z,76.70
2018-03-08T22:39:59.618Z,76.60
2018-03-08T22:42:27.746Z,77.40
2018-03-08T22:44:56.676Z,79.00
2018-03-08T22:47:24.809Z,78.90
2018-03-08T22:49:52.940Z,79.20
2018-03-08T22:52:21.071Z,79.50
2018-03-08T22:54:49.213Z,79.70
2018-03-08T22:57:17.336Z,81.20
2018-03-08T22:59:45.443Z,80.90
2018-03-08T23:02:13.576Z,81.10
2018-03-08T23:04:41.715Z,81.20
2018-03-08T23:07:09.887Z,81.30
2018-03-08T23:09:38.016Z,81.70
2018-03-08T23:12:06.125Z,82.00
2018-03-08T23:14:34.252Z,82.10
2018-03-08T23:17:02.366Z,82.20
2018-03-08T23:19:31.237Z,82.00
2018-03-08T23:21:59.369Z,82.00
2018-03-08T23:24:28.255Z,82.30
2018-03-08T23:26:56.443Z,82.20
2018-03-08T23:29:24.570Z,82.30
2018-03-08T23:31:52.672Z,82.40
2018-03-08T23:34:20.778Z,81.90
2018-03-08T23:36:48.884Z,81.70
2018-03-08T23:39:17.839Z,82.00
2018-03-08T23:41:45.912Z,81.80
2018-03-08T23:44:14.053Z,82.20
2018-03-08T23:46:42.148Z,82.40
2018-03-08T23:49:11.006Z,83.00
2018-03-08T23:51:39.139Z,83.00
2018-03-08T23:54:08.053Z,83.30
2018-03-08T23:56:36.934Z,83.50
2018-03-08T23:59:05.829Z,83.50
